createdAt,value
2022-11-05T00:02:24.084Z,20.67
2022-11-05T00:05:10.057Z,21.90
2022-11-05T00:07:58.107Z,21.20
2022-11-05T00:10:27.237Z,21.10
2022-11-05T00:13:13.890Z,21.85
2022-11-05T00:15:59.765Z,21.73
2022-11-05T00:18:27.203Z,22.08
2022-11-05T00:20:54.567Z,22.30
2022-11-05T00:23:40.569Z,21.88
2022-11-05T00:26:09.470Z,22.98
2022-11-05T00:28:36.893Z,22.80
2022-11-05T00:31:09.859Z,21.95
2022-11-05T00:33:37.743Z,23.10
2022-11-05T00:36:05.605Z,21.67
2022-11-05T00:38:33.268Z,22.52
2022-11-05T00:41:00.842Z,24.15
2022-11-05T00:43:46.990Z,22.80
2022-11-05T00:46:14.411Z,22.45
2022-11-05T00:49:00.540Z,21.98
2022-11-05T00:51:27.966Z,21.55
2022-11-05T00:53:55.351Z,22.77
2022-11-05T00:56:22.919Z,22.92
2022-11-05T00:58:50.309Z,22.08
2022-11-05T01:01:17.868Z,22.13
2022-11-05T01:03:51.313Z,23.90
2022-11-05T01:06:19.316Z,22.75
2022-11-05T01:08:46.864Z,22.60
2022-11-05T01:11:38.651Z,22.02
2022-11-05T01:14:08.141Z,22.55
2022-11-05T01:16:36.324Z,23.08
2022-11-05T01:19:04.574Z,23.02
2022-11-05T01:21:32.009Z,23.40
2022-11-05T01:23:59.506Z,22.55
2022-11-05T01:26:27.199Z,22.35
2022-11-05T01:28:55.532Z,24.73
2022-11-05T01:31:23.661Z,22.70
2022-11-05T01:33:51.379Z,23.25
2022-11-05T01:36:19.077Z,23.30
2022-11-05T01:38:46.510Z,23.83
2022-11-05T01:41:13.887Z,24.45
2022-11-05T01:43:51.862Z,23.50
2022-11-05T01:46:22.706Z,22.63
2022-11-05T01:48:55.193Z,22.42
2022-11-05T01:51:27.182Z,22.70
2022-11-05T01:53:58.023Z,23.67
2022-11-05T01:56:29.151Z,22.95
2022-11-05T01:58:58.778Z,23.70
2022-11-05T02:01:26.292Z,22.42
2022-11-05T02:03:55.989Z,23.17
2022-11-05T02:06:23.465Z,23.95
2022-11-05T02:08:54.021Z,23.40
2022-11-05T02:11:21.510Z,23.27
2022-11-05T02:13:49.546Z,24.38
2022-11-05T02:16:16.945Z,23.80
2022-11-05T02:18:56.735Z,23.50
2022-11-05T02:21:27.161Z,23.95
2022-11-05T02:24:01.692Z,23.23
2022-11-05T02:26:47.850Z,24.73
2022-11-05T02:29:33.998Z,24.60
2022-11-05T02:32:01.363Z,24.48
2022-11-05T02:34:28.693Z,26.35
2022-11-05T02:37:06.610Z,23.85
2022-11-05T02:39:44.580Z,26.42
2022-11-05T02:42:16.647Z,25.95
2022-11-05T02:45:06.821Z,26.38
2022-11-05T02:47:51.501Z,26.00
2022-11-05T02:50:20.165Z,25.97
2022-11-05T02:52:52.402Z,24.98
2022-11-05T02:55:37.905Z,26.67
2022-11-05T02:58:05.992Z,25.08
2022-11-05T03:00:52.598Z,25.30
2022-11-05T03:03:19.946Z,24.52
2022-11-05T03:05:50.348Z,25.85
2022-11-05T03:08:29.093Z,24.73
2022-11-05T03:11:00.921Z,24.83
2022-11-05T03:13:36.381Z,24.15
2022-11-05T03:16:08.033Z,23.83
2022-11-05T03:18:42.925Z,24.77
2022-11-05T03:21:12.637Z,23.40
2022-11-05T03:23:46.225Z,24.83
2022-11-05T03:26:19.022Z,23.88
2022-11-05T03:28:48.744Z,25.02
2022-11-05T03:31:17.388Z,24.33
2022-11-05T03:33:45.829Z,24.67
2022-11-05T03:36:16.521Z,23.98
2022-11-05T03:38:45.254Z,24.20
2022-11-05T03:41:14.973Z,24.27
2022-11-05T03:43:45.349Z,24.15
2022-11-05T03:46:51.183Z,25.73
2022-11-05T03:49:22.191Z,24.90
2022-11-05T03:51:52.407Z,24.77
2022-11-05T03:54:19.975Z,24.27
2022-11-05T03:56:52.064Z,23.73
2022-11-05T03:59:20.534Z,23.48
2022-11-05T04:01:48.483Z,23.52
2022-11-05T04:04:16.094Z,23.90
2022-11-05T04:07:19.040Z,24.25
2022-11-05T04:10:05.018Z,24.42
2022-11-05T04:12:51.286Z,23.65
2022-11-05T04:15:18.728Z,23.98
2022-11-05T04:17:46.069Z,25.00
2022-11-05T04:20:32.558Z,24.08
2022-11-05T04:23:39.840Z,24.15
2022-11-05T04:26:07.251Z,24.35
2022-11-05T04:28:53.041Z,25.88
2022-11-05T04:31:20.576Z,24.48
2022-11-05T04:33:47.986Z,25.55
2022-11-05T04:36:15.541Z,24.08
2022-11-05T04:38:42.903Z,23.77
2022-11-05T04:41:14.622Z,24.00
2022-11-05T04:43:42.027Z,25.48
2022-11-05T04:46:09.587Z,25.50
2022-11-05T04:48:37.030Z,24.63
2022-11-05T04:51:04.846Z,24.38
2022-11-05T04:53:32.302Z,24.20
2022-11-05T04:56:11.966Z,25.17
2022-11-05T04:58:40.286Z,24.42
2022-11-05T05:01:11.312Z,25.05
2022-11-05T05:03:38.731Z,24.20
2022-11-05T05:06:06.155Z,26.83
2022-11-05T05:08:33.576Z,24.60
2022-11-05T05:11:08.196Z,23.17
2022-11-05T05:13:35.926Z,24.90
2022-11-05T05:16:10.435Z,24.30
2022-11-05T05:18:42.154Z,23.23
2022-11-05T05:21:31.070Z,24.13
2022-11-05T05:23:58.525Z,24.25
2022-11-05T05:26:25.893Z,22.63
2022-11-05T05:28:53.996Z,22.92
2022-11-05T05:31:22.113Z,23.60
2022-11-05T05:33:49.646Z,22.70
2022-11-05T05:36:17.018Z,23.58
2022-11-05T05:38:44.425Z,24.08
2022-11-05T05:41:11.759Z,24.15
2022-11-05T05:43:39.158Z,25.65
2022-11-05T05:46:07.580Z,24.02
2022-11-05T05:48:35.470Z,24.15
2022-11-05T05:51:03.361Z,24.13
2022-11-05T05:53:30.852Z,27.45
2022-11-05T05:55:58.662Z,27.65
2022-11-05T05:58:27.021Z,45.47
2022-11-05T06:00:55.027Z,36.80
2022-11-05T06:03:22.587Z,26.25
2022-11-05T06:05:50.097Z,25.15
2022-11-05T06:08:17.718Z,24.50
2022-11-05T06:10:51.354Z,25.02
2022-11-05T06:13:18.809Z,24.20
2022-11-05T06:15:46.234Z,25.02
2022-11-05T06:18:14.060Z,24.48
2022-11-05T06:20:41.773Z,24.20
2022-11-05T06:23:09.667Z,24.80
2022-11-05T06:25:41.028Z,29.50
2022-11-05T06:28:08.882Z,26.75
2022-11-05T06:30:36.245Z,25.50
2022-11-05T06:33:06.467Z,24.77
2022-11-05T06:35:33.912Z,23.52
2022-11-05T06:38:02.153Z,24.35
2022-11-05T06:40:30.071Z,24.48
2022-11-05T06:42:57.668Z,25.67
2022-11-05T06:45:25.462Z,30.38
2022-11-05T06:47:57.084Z,31.80
2022-11-05T06:50:25.504Z,33.42
2022-11-05T06:53:00.086Z,30.17
2022-11-05T06:55:28.857Z,39.00
2022-11-05T06:57:56.877Z,37.03
2022-11-05T07:00:24.760Z,29.88
2022-11-05T07:02:52.124Z,27.67
2022-11-05T07:05:19.554Z,34.75
2022-11-05T07:07:46.968Z,25.27
2022-11-05T07:10:15.765Z,24.85
2022-11-05T07:12:43.364Z,26.17
2022-11-05T07:15:11.611Z,24.55
2022-11-05T07:17:39.617Z,24.92
2022-11-05T07:20:08.257Z,25.13
2022-11-05T07:22:36.366Z,22.05
2022-11-05T07:25:04.029Z,22.58
2022-11-05T07:27:31.374Z,22.35
2022-11-05T07:29:58.789Z,23.35
2022-11-05T07:32:26.239Z,23.05
2022-11-05T07:34:53.605Z,22.63
2022-11-05T07:37:21.141Z,22.15
2022-11-05T07:39:48.552Z,21.55
2022-11-05T07:42:16.053Z,21.00
2022-11-05T07:44:43.426Z,22.52
2022-11-05T07:47:10.850Z,21.77
2022-11-05T07:49:38.356Z,22.20
2022-11-05T07:52:06.047Z,23.38
2022-11-05T07:54:33.604Z,23.70
2022-11-05T07:57:01.540Z,22.88
2022-11-05T07:59:28.997Z,21.95
2022-11-05T08:01:56.456Z,22.10
2022-11-05T08:04:24.029Z,22.02
2022-11-05T08:06:51.400Z,21.90
2022-11-05T08:09:18.782Z,21.85
2022-11-05T08:11:46.314Z,20.80
2022-11-05T08:14:13.690Z,19.42
2022-11-05T08:16:41.133Z,19.65
2022-11-05T08:19:08.541Z,19.88
2022-11-05T08:21:35.997Z,19.83
2022-11-05T08:24:03.416Z,19.63
2022-11-05T08:26:30.781Z,19.40
2022-11-05T08:28:58.276Z,18.60
2022-11-05T08:31:25.714Z,20.38
2022-11-05T08:33:57.132Z,19.08
2022-11-05T08:36:27.281Z,22.10
2022-11-05T08:38:54.706Z,20.88
2022-11-05T08:41:23.356Z,19.13
2022-11-05T08:43:50.850Z,19.70
2022-11-05T08:46:18.217Z,19.48
2022-11-05T08:48:45.745Z,19.08
2022-11-05T08:51:13.083Z,19.15
2022-11-05T08:53:40.495Z,18.10
2022-11-05T08:56:07.969Z,18.92
2022-11-05T08:58:35.439Z,20.58
2022-11-05T09:01:05.648Z,22.02
2022-11-05T09:03:33.221Z,18.50
2022-11-05T09:06:00.584Z,18.33
2022-11-05T09:08:27.991Z,18.42
2022-11-05T09:10:55.334Z,19.77
2022-11-05T09:13:23.198Z,19.40
2022-11-05T09:15:51.142Z,18.30
2022-11-05T09:18:18.898Z,18.48
2022-11-05T09:20:46.826Z,18.13
2022-11-05T09:23:17.582Z,18.92
2022-11-05T09:25:45.317Z,17.58
2022-11-05T09:28:17.572Z,19.42
2022-11-05T09:30:46.250Z,18.02
2022-11-05T09:33:14.058Z,18.15
2022-11-05T09:35:42.278Z,17.23
2022-11-05T09:38:09.755Z,18.33
2022-11-05T09:40:40.134Z,17.50
2022-11-05T09:43:07.671Z,18.00
2022-11-05T09:45:36.762Z,17.05
2022-11-05T09:48:11.687Z,18.85
2022-11-05T09:53:06.850Z,17.58
2022-11-05T09:55:36.379Z,18.83
2022-11-05T09:58:07.070Z,19.23
2022-11-05T10:00:34.806Z,18.55
2022-11-05T10:03:05.760Z,19.38
2022-11-05T10:05:34.087Z,18.42
2022-11-05T10:08:07.049Z,18.90
2022-11-05T10:10:40.345Z,19.65
2022-11-05T10:13:27.266Z,18.47
2022-11-05T10:16:05.342Z,17.70
2022-11-05T10:18:37.123Z,20.00
2022-11-05T10:21:04.942Z,17.85
2022-11-05T10:23:33.142Z,17.30
2022-11-05T10:26:12.756Z,16.65
2022-11-05T10:28:40.487Z,20.08
2022-11-05T10:31:09.370Z,18.67
2022-11-05T10:33:40.923Z,18.10
2022-11-05T10:36:11.034Z,16.70
2022-11-05T10:38:38.635Z,17.77
2022-11-05T10:41:15.218Z,17.90
2022-11-05T10:43:48.379Z,18.40
2022-11-05T10:46:15.764Z,17.92
2022-11-05T10:48:49.157Z,17.13
2022-11-05T10:51:17.293Z,17.77
2022-11-05T10:53:58.745Z,17.90
2022-11-05T10:56:30.529Z,17.00
2022-11-05T10:58:58.754Z,15.85
2022-11-05T11:01:27.219Z,15.85
2022-11-05T11:04:05.878Z,16.25
2022-11-05T11:06:39.135Z,16.48
2022-11-05T11:09:18.849Z,17.38
2022-11-05T11:11:46.398Z,16.55
2022-11-05T11:14:13.741Z,16.70
2022-11-05T11:16:42.612Z,17.35
2022-11-05T11:19:21.964Z,17.48
2022-11-05T11:22:10.922Z,17.90
2022-11-05T11:24:39.693Z,17.45
2022-11-05T11:27:22.422Z,16.35
2022-11-05T11:29:51.573Z,16.25
2022-11-05T11:32:21.254Z,18.00
2022-11-05T11:34:53.571Z,17.25
2022-11-05T11:37:24.693Z,16.35
2022-11-05T11:39:54.551Z,16.27
2022-11-05T11:42:29.918Z,15.43
2022-11-05T11:44:59.194Z,17.38
2022-11-05T11:47:27.967Z,16.77
2022-11-05T11:49:57.222Z,16.17
2022-11-05T11:52:30.532Z,17.73
2022-11-05T11:55:10.286Z,16.88
2022-11-05T11:58:06.314Z,17.70
2022-11-05T12:00:40.441Z,14.88
2022-11-05T12:03:10.802Z,16.48
2022-11-05T12:05:41.572Z,16.85
2022-11-05T12:08:17.955Z,17.25
2022-11-05T12:10:52.279Z,17.55
2022-11-05T12:13:20.489Z,19.40
2022-11-05T12:15:55.995Z,21.13
2022-11-05T12:18:42.329Z,18.35
2022-11-05T12:21:41.103Z,17.45
2022-11-05T12:24:14.314Z,17.80
2022-11-05T12:26:41.841Z,22.48
2022-11-05T12:29:21.214Z,17.95
2022-11-05T12:31:55.835Z,17.95
2022-11-05T12:34:23.245Z,18.40
2022-11-05T12:37:08.636Z,18.35
2022-11-05T12:39:54.875Z,18.45
2022-11-05T12:42:22.297Z,17.05
2022-11-05T12:44:53.934Z,18.45
2022-11-05T12:47:27.575Z,17.50
2022-11-05T12:49:59.996Z,17.88
2022-11-05T12:52:56.571Z,17.50
2022-11-05T12:55:25.551Z,19.23
2022-11-05T12:57:54.325Z,17.98
2022-11-05T13:00:23.927Z,19.80
2022-11-05T13:02:57.402Z,18.65
2022-11-05T13:05:35.871Z,18.00
2022-11-05T13:08:09.491Z,16.65
2022-11-05T13:10:52.841Z,16.77
2022-11-05T13:13:26.178Z,16.65
2022-11-05T13:16:10.961Z,16.80
2022-11-05T13:18:53.209Z,17.20
2022-11-05T13:21:24.113Z,16.73
2022-11-05T13:23:56.150Z,16.73
2022-11-05T13:26:29.456Z,16.40
2022-11-05T13:29:02.402Z,16.92
2022-11-05T13:31:35.681Z,17.40
2022-11-05T13:34:05.235Z,17.30
2022-11-05T13:36:53.138Z,17.48
2022-11-05T13:39:24.176Z,15.88
2022-11-05T13:42:00.675Z,17.00
2022-11-05T13:44:31.169Z,16.63
2022-11-05T13:47:07.898Z,17.25
2022-11-05T13:49:48.164Z,15.70
2022-11-05T13:52:36.820Z,15.85
2022-11-05T13:55:16.474Z,16.20
2022-11-05T13:57:52.939Z,16.75
2022-11-05T14:00:21.824Z,17.60
2022-11-05T14:02:55.534Z,17.30
2022-11-05T14:05:22.978Z,17.45
2022-11-05T14:07:50.703Z,18.20
2022-11-05T14:10:31.303Z,17.65
2022-11-05T14:13:00.226Z,18.20
2022-11-05T14:15:29.038Z,17.00
2022-11-05T14:18:02.655Z,16.25
2022-11-05T14:20:33.113Z,16.60
2022-11-05T14:23:39.208Z,16.52
2022-11-05T14:28:36.702Z,16.83
2022-11-05T14:31:05.319Z,31.73
2022-11-05T14:33:33.948Z,16.98
2022-11-05T14:36:19.922Z,22.10
2022-11-05T14:38:51.602Z,20.38
2022-11-05T14:41:20.061Z,19.00
2022-11-05T14:43:49.605Z,18.35
2022-11-05T14:46:17.041Z,17.23
2022-11-05T14:49:08.121Z,17.20
2022-11-05T14:51:39.417Z,16.13
2022-11-05T14:54:06.821Z,16.95
2022-11-05T14:56:56.621Z,15.75
2022-11-05T14:59:33.157Z,15.77
2022-11-05T15:02:03.588Z,16.90
2022-11-05T15:04:31.099Z,17.27
2022-11-05T15:07:04.397Z,16.95
2022-11-05T15:09:41.080Z,17.52
2022-11-05T15:12:20.049Z,17.55
2022-11-05T15:14:56.480Z,17.20
2022-11-05T15:17:30.089Z,16.60
2022-11-05T15:20:09.663Z,17.02
2022-11-05T15:22:48.924Z,17.65
2022-11-05T15:25:24.227Z,17.58
2022-11-05T15:27:54.682Z,16.02
2022-11-05T15:30:22.959Z,16.60
2022-11-05T15:32:50.677Z,16.65
2022-11-05T15:35:19.440Z,15.63
2022-11-05T15:37:52.565Z,15.63
2022-11-05T15:40:31.099Z,16.67
2022-11-05T15:43:10.888Z,16.15
2022-11-05T15:45:38.584Z,15.98
2022-11-05T15:48:13.363Z,15.38
2022-11-05T15:50:41.175Z,15.15
2022-11-05T15:53:44.217Z,15.30
2022-11-05T15:56:12.190Z,14.77
2022-11-05T15:58:43.746Z,16.98
2022-11-05T16:01:20.236Z,16.55
2022-11-05T16:03:47.810Z,16.98
2022-11-05T16:06:15.211Z,16.23
2022-11-05T16:08:46.798Z,16.88
2022-11-05T16:11:21.233Z,15.93
2022-11-05T16:13:48.817Z,15.63
2022-11-05T16:16:16.165Z,16.33
2022-11-05T16:18:44.545Z,17.00
2022-11-05T16:21:13.743Z,15.85
2022-11-05T16:23:41.890Z,16.05
2022-11-05T16:27:00.775Z,16.35
2022-11-05T16:29:35.357Z,17.10
2022-11-05T16:32:05.680Z,17.60
2022-11-05T16:34:36.664Z,16.90
2022-11-05T16:37:05.207Z,16.20
2022-11-05T16:39:32.824Z,16.80
2022-11-05T16:42:00.190Z,17.60
2022-11-05T16:44:27.618Z,16.92
2022-11-05T16:46:55.003Z,17.23
2022-11-05T16:49:22.657Z,17.48
2022-11-05T16:51:50.037Z,16.13
2022-11-05T16:54:17.412Z,16.33
2022-11-05T16:56:47.391Z,17.77
2022-11-05T16:59:15.320Z,16.63
2022-11-05T17:01:43.239Z,17.40
2022-11-05T17:04:13.237Z,17.55
2022-11-05T17:06:40.868Z,18.48
2022-11-05T17:09:08.211Z,18.05
2022-11-05T17:11:35.617Z,18.23
2022-11-05T17:14:02.991Z,18.88
2022-11-05T17:16:30.536Z,19.88
2022-11-05T17:18:57.951Z,17.65
2022-11-05T17:21:25.384Z,19.58
2022-11-05T17:23:52.728Z,20.80
2022-11-05T17:26:20.358Z,18.52
2022-11-05T17:28:47.759Z,20.38
2022-11-05T17:31:15.298Z,18.50
2022-11-05T17:33:42.774Z,19.30
2022-11-05T17:36:11.997Z,19.23
2022-11-05T17:38:39.902Z,19.08
2022-11-05T17:41:14.171Z,20.15
2022-11-05T17:43:41.866Z,19.30
2022-11-05T17:46:10.441Z,20.15
2022-11-05T17:48:38.680Z,20.23
2022-11-05T17:51:09.340Z,19.83
2022-11-05T17:53:37.146Z,20.67
2022-11-05T17:56:08.750Z,20.77
2022-11-05T17:58:36.498Z,22.00
2022-11-05T18:01:03.942Z,20.40
2022-11-05T18:03:31.466Z,20.95
2022-11-05T18:06:05.703Z,22.00
2022-11-05T18:08:33.520Z,20.45
2022-11-05T18:11:01.036Z,21.52
2022-11-05T18:13:28.562Z,21.73
2022-11-05T18:15:55.908Z,20.30
2022-11-05T18:18:23.604Z,21.00
2022-11-05T18:20:51.024Z,22.98
2022-11-05T18:23:18.662Z,19.80
2022-11-05T18:25:45.996Z,22.27
2022-11-05T18:28:13.657Z,21.83
2022-11-05T18:30:41.423Z,21.42
2022-11-05T18:33:09.027Z,21.02
2022-11-05T18:35:41.199Z,21.85
2022-11-05T18:38:08.687Z,21.08
2022-11-05T18:40:36.070Z,22.70
2022-11-05T18:43:03.652Z,23.25
2022-11-05T18:45:32.016Z,23.55
2022-11-05T18:48:00.141Z,22.58
2022-11-05T18:50:27.863Z,22.75
2022-11-05T18:52:55.213Z,22.02
2022-11-05T18:55:22.626Z,22.23
2022-11-05T18:57:49.958Z,23.42
2022-11-05T19:00:17.498Z,21.98
2022-11-05T19:02:44.977Z,24.90
2022-11-05T19:05:29.656Z,23.70
2022-11-05T19:07:57.643Z,23.25
2022-11-05T19:10:25.181Z,24.42
2022-11-05T19:12:53.044Z,25.98
2022-11-05T19:15:20.416Z,23.38
2022-11-05T19:17:47.956Z,24.42
2022-11-05T19:20:15.469Z,24.85
2022-11-05T19:22:42.967Z,27.15
2022-11-05T19:25:10.285Z,27.05
2022-11-05T19:27:38.651Z,25.23
2022-11-05T19:30:06.390Z,26.58
2022-11-05T19:32:33.809Z,25.70
2022-11-05T19:35:01.266Z,27.08
2022-11-05T19:37:28.630Z,27.25
2022-11-05T19:39:56.026Z,27.02
2022-11-05T19:42:23.410Z,26.05
2022-11-05T19:44:50.728Z,30.08
2022-11-05T19:47:18.238Z,28.42
2022-11-05T19:49:45.556Z,29.00
2022-11-05T19:52:12.988Z,28.25
2022-11-05T19:54:40.463Z,28.08
2022-11-05T19:57:07.849Z,29.45
2022-11-05T19:59:35.198Z,28.42
2022-11-05T20:02:02.747Z,29.60
2022-11-05T20:04:30.218Z,30.77
2022-11-05T20:06:58.003Z,29.63
2022-11-05T20:09:25.439Z,30.15
2022-11-05T20:11:59.194Z,29.85
2022-11-05T20:14:27.038Z,33.13
2022-11-05T20:16:54.762Z,31.25
2022-11-05T20:19:22.915Z,33.72
2022-11-05T20:21:50.299Z,32.97
2022-11-05T20:24:24.302Z,34.47
2022-11-05T20:26:52.929Z,34.70
2022-11-05T20:29:20.276Z,34.92
2022-11-05T20:31:47.972Z,35.40
2022-11-05T20:34:15.534Z,36.58
2022-11-05T20:36:43.029Z,36.88
2022-11-05T20:39:12.015Z,36.95
2022-11-05T20:41:39.500Z,36.53
2022-11-05T20:44:06.921Z,35.55
2022-11-05T20:46:34.613Z,39.47
2022-11-05T20:49:01.956Z,37.75
2022-11-05T20:51:29.717Z,38.00
2022-11-05T20:53:58.226Z,39.50
2022-11-05T20:56:27.417Z,38.88
2022-11-05T20:58:55.556Z,38.33
2022-11-05T21:01:23.093Z,39.42
2022-11-05T21:03:50.548Z,41.00
2022-11-05T21:06:18.012Z,41.67
2022-11-05T21:08:47.849Z,39.10
2022-11-05T21:11:15.585Z,40.22
2022-11-05T21:13:43.102Z,42.80
2022-11-05T21:16:15.435Z,40.40
2022-11-05T21:18:45.399Z,43.00
2022-11-05T21:21:14.340Z,43.25
2022-11-05T21:23:41.941Z,40.42
2022-11-05T21:26:11.685Z,43.72
2022-11-05T21:28:40.052Z,43.35
2022-11-05T21:31:08.075Z,42.72
2022-11-05T21:33:35.460Z,41.85
2022-11-05T21:36:06.681Z,42.85
2022-11-05T21:38:34.147Z,42.03
2022-11-05T21:41:02.897Z,43.17
2022-11-05T21:43:30.416Z,43.45
2022-11-05T21:46:01.007Z,41.28
2022-11-05T21:48:28.402Z,44.33
2022-11-05T21:51:14.313Z,43.00
2022-11-05T21:54:00.367Z,41.53
2022-11-05T21:56:46.450Z,42.20
2022-11-05T21:59:33.942Z,43.50
2022-11-05T22:02:01.849Z,43.17
2022-11-05T22:04:34.373Z,45.03
2022-11-05T22:07:02.230Z,44.53
2022-11-05T22:09:29.863Z,45.72
2022-11-05T22:11:57.821Z,44.83
2022-11-05T22:14:25.587Z,44.00
2022-11-05T22:16:53.015Z,44.13
2022-11-05T22:19:21.867Z,47.80
2022-11-05T22:21:49.535Z,44.38
2022-11-05T22:24:17.062Z,46.05
2022-11-05T22:26:45.026Z,43.63
2022-11-05T22:29:12.883Z,44.83
2022-11-05T22:31:40.327Z,44.83
2022-11-05T22:34:07.840Z,44.67
2022-11-05T22:36:35.541Z,45.35
2022-11-05T22:39:03.065Z,44.17
2022-11-05T22:41:30.474Z,43.63
2022-11-05T22:43:58.339Z,47.22
2022-11-05T22:46:27.030Z,45.47
2022-11-05T22:48:55.986Z,44.03
2022-11-05T22:51:25.419Z,45.20
2022-11-05T22:53:53.002Z,46.35
2022-11-05T22:56:21.856Z,45.03
2022-11-05T22:58:49.334Z,46.25
2022-11-05T23:01:17.531Z,47.28
2022-11-05T23:03:45.908Z,49.65
2022-11-05T23:06:36.427Z,46.25
2022-11-05T23:09:23.835Z,50.22
2022-11-05T23:11:52.393Z,47.58
2022-11-05T23:14:19.864Z,48.13
2022-11-05T23:17:05.715Z,49.92
2022-11-05T23:19:51.882Z,48.70
2022-11-05T23:22:39.322Z,49.38
2022-11-05T23:25:07.903Z,47.95
2022-11-05T23:27:36.282Z,54.92
2022-11-05T23:30:06.578Z,51.28
2022-11-05T23:32:34.028Z,51.28
2022-11-05T23:35:01.425Z,55.08
2022-11-05T23:37:48.667Z,52.67
2022-11-05T23:40:21.195Z,51.75
2022-11-05T23:43:07.634Z,52.05
2022-11-05T23:45:53.642Z,52.92
2022-11-05T23:48:33.694Z,54.63
2022-11-05T23:51:02.797Z,50.10
2022-11-05T23:53:31.336Z,56.03
2022-11-05T23:56:03.227Z,56.10
2022-11-05T23:58:30.986Z,54.72
